This is the latest recevied weather packets stored in our database for station/object AI5BL. If no packets are shown the sender has not sent any weather packets the latest 10 day(s).
| Time | Temp. | Humidity | Pressure | Rain* | Wind** | Luminosity | Snow |
|---|---|---|---|---|---|---|---|
| 1777868016 | 11.67° C | 96% | 1021.3 hPa | 0 mm | - | 0 W/m² | - |
| 1777867713 | 11.67° C | 96% | 1020.9 hPa | 0 mm | - | 0 W/m² | - |
| 1777867106 | 11.67° C | 94% | 1021.1 hPa | 0 mm | - | 0 W/m² | - |
| 1777866804 | 12.22° C | 94% | 1021.1 hPa | 0 mm | - | 0 W/m² | - |
| 1777865895 | 11.67° C | 94% | 1021 hPa | 0 mm | - | 0 W/m² | - |
| 1777865289 | 12.78° C | 92% | 1021 hPa | 0 mm | - | 0 W/m² | - |
| 1777864987 | 12.78° C | 93% | 1021 hPa | 0 mm | - | 0 W/m² | - |
| 1777864684 | 12.78° C | 94% | 1021.1 hPa | 0 mm | - | 0 W/m² | - |
| 1777848006 | 21.67° C | 55% | 1019.7 hPa | 0 mm | - | 34 W/m² | - |
| 1777845583 | 22.78° C | 44% | 1020.2 hPa | 0 mm | - | 47 W/m² | - |
| 1777845279 | 22.78° C | 42% | 1020.3 hPa | 0 mm | - | 44 W/m² | - |
| 1777844675 | 22.22° C | 60% | 1020.5 hPa | 0 mm | - | 58 W/m² | - |
| 1777844372 | 22.78° C | 52% | 1020.6 hPa | 0 mm | - | 91 W/m² | - |
| 1777844070 | 22.22° C | 55% | 1020.4 hPa | 0 mm | - | 102 W/m² | - |
| 1777843766 | 22.78° C | 51% | 1020.6 hPa | 0 mm | - | 99 W/m² | - |
| 1777843464 | 22.78° C | 45% | 1020.7 hPa | 0 mm | - | 72 W/m² | - |
| 1777841642 | 23.33° C | 42% | 1020.9 hPa | 0 mm | - | 112 W/m² | - |
| 1777840732 | 23.89° C | 42% | 1021.2 hPa | 0 mm | - | 125 W/m² | - |
| 1777840430 | 23.89° C | 43% | 1021.2 hPa | 0 mm | - | 114 W/m² | - |
| 1777840126 | 23.33° C | 48% | 1021.3 hPa | 0 mm | - | 174 W/m² | - |
| 1777839825 | 23.89° C | 42% | 1021.4 hPa | 0 mm | - | 127 W/m² | - |
| 1777837400 | 23.89° C | 42% | 1022.1 hPa | 0 mm | - | 751 W/m² | - |
| 1777837096 | 24.44° C | 39% | 1022.2 hPa | 0 mm | - | 751 W/m² | - |
| 1777836792 | 25° C | 41% | 1022.5 hPa | 0 mm | - | 757 W/m² | - |
| 1777835274 | 24.44° C | 39% | 1022.8 hPa | 0 mm | - | 816 W/m² | - |
* Rain latest hour (hover to see other rain measurements)
** Current wind speed in m/s (hover to see current wind gust speed)